sensor_id;sensor_type;location;lat;lon;timestamp;temperature;humidity
60293;DHT22;52402;52.670;6.750;2024-01-11T00:00:46;-5.70;99.90
60293;DHT22;52402;52.670;6.750;2024-01-11T00:03:12;-5.80;99.90
60293;DHT22;52402;52.670;6.750;2024-01-11T00:05:38;-5.80;99.90
60293;DHT22;52402;52.670;6.750;2024-01-11T00:08:04;-5.80;99.90
60293;DHT22;52402;52.670;6.750;2024-01-11T00:10:30;-5.70;99.90
60293;DHT22;52402;52.670;6.750;2024-01-11T00:12:59;-5.80;99.90
60293;DHT22;52402;52.670;6.750;2024-01-11T00:15:25;-5.80;99.90
60293;DHT22;52402;52.670;6.750;2024-01-11T00:17:51;-5.80;99.90
60293;DHT22;52402;52.670;6.750;2024-01-11T00:20:16;-5.80;99.90
60293;DHT22;52402;52.670;6.750;2024-01-11T00:22:42;-5.80;99.90
60293;DHT22;52402;52.670;6.750;2024-01-11T00:25:08;-5.80;99.90
60293;DHT22;52402;52.670;6.750;2024-01-11T00:27:33;-5.70;99.90
60293;DHT22;52402;52.670;6.750;2024-01-11T00:29:59;-5.80;99.90
60293;DHT22;52402;52.670;6.750;2024-01-11T00:32:28;-5.80;99.90
60293;DHT22;52402;52.670;6.750;2024-01-11T00:34:53;-5.80;99.90
60293;DHT22;52402;52.670;6.750;2024-01-11T00:37:19;-5.80;99.90
60293;DHT22;52402;52.670;6.750;2024-01-11T00:39:45;-5.80;99.90
60293;DHT22;52402;52.670;6.750;2024-01-11T00:42:10;-5.90;99.90
60293;DHT22;52402;52.670;6.750;2024-01-11T00:44:42;-5.90;99.90
60293;DHT22;52402;52.670;6.750;2024-01-11T00:47:10;-5.90;99.90
60293;DHT22;52402;52.670;6.750;2024-01-11T00:49:36;-5.90;99.90
60293;DHT22;52402;52.670;6.750;2024-01-11T00:52:02;-6.00;99.90
60293;DHT22;52402;52.670;6.750;2024-01-11T00:54:27;-6.00;99.90
60293;DHT22;52402;52.670;6.750;2024-01-11T00:56:53;-6.00;99.90
60293;DHT22;52402;52.670;6.750;2024-01-11T00:59:21;-6.00;99.90
60293;DHT22;52402;52.670;6.750;2024-01-11T01:01:49;-6.00;99.90
60293;DHT22;52402;52.670;6.750;2024-01-11T01:04:15;-6.10;99.90
60293;DHT22;52402;52.670;6.750;2024-01-11T01:06:41;-6.10;99.90
60293;DHT22;52402;52.670;6.750;2024-01-11T01:09:08;-6.00;99.90
60293;DHT22;52402;52.670;6.750;2024-01-11T01:11:33;-6.10;99.90
60293;DHT22;52402;52.670;6.750;2024-01-11T01:13:59;-6.10;99.90
60293;DHT22;52402;52.670;6.750;2024-01-11T01:16:24;-6.10;99.90
60293;DHT22;52402;52.670;6.750;2024-01-11T01:18:50;-6.10;99.90
60293;DHT22;52402;52.670;6.750;2024-01-11T01:21:20;-6.20;99.90
60293;DHT22;52402;52.670;6.750;2024-01-11T01:23:45;-6.10;99.90
60293;DHT22;52402;52.670;6.750;2024-01-11T01:26:12;-6.20;99.90
60293;DHT22;52402;52.670;6.750;2024-01-11T01:28:37;-6.20;99.90
60293;DHT22;52402;52.670;6.750;2024-01-11T01:31:03;-6.10;99.90
60293;DHT22;52402;52.670;6.750;2024-01-11T01:33:29;-6.20;99.90
60293;DHT22;52402;52.670;6.750;2024-01-11T01:35:54;-6.20;99.90
60293;DHT22;52402;52.670;6.750;2024-01-11T01:38:20;-6.20;99.90
60293;DHT22;52402;52.670;6.750;2024-01-11T01:40:46;-6.20;99.90
60293;DHT22;52402;52.670;6.750;2024-01-11T01:43:11;-6.20;99.90
60293;DHT22;52402;52.670;6.750;2024-01-11T01:45:41;-6.30;99.90
60293;DHT22;52402;52.670;6.750;2024-01-11T01:48:07;-6.30;99.90
60293;DHT22;52402;52.670;6.750;2024-01-11T01:50:33;-6.30;99.90
60293;DHT22;52402;52.670;6.750;2024-01-11T01:52:59;-6.30;99.90
60293;DHT22;52402;52.670;6.750;2024-01-11T01:55:26;-6.30;99.90
60293;DHT22;52402;52.670;6.750;2024-01-11T01:57:52;-6.30;99.90
60293;DHT22;52402;52.670;6.750;2024-01-11T02:00:19;-6.40;99.90
60293;DHT22;52402;52.670;6.750;2024-01-11T02:02:45;-6.40;99.90
60293;DHT22;52402;52.670;6.750;2024-01-11T02:05:14;-6.40;99.90
60293;DHT22;52402;52.670;6.750;2024-01-11T02:07:41;-6.40;99.90
60293;DHT22;52402;52.670;6.750;2024-01-11T02:10:07;-6.40;99.90
60293;DHT22;52402;52.670;6.750;2024-01-11T02:12:36;-6.40;99.90
60293;DHT22;52402;52.670;6.750;2024-01-11T02:15:05;-6.40;99.90
60293;DHT22;52402;52.670;6.750;2024-01-11T02:17:31;-6.30;99.90
60293;DHT22;52402;52.670;6.750;2024-01-11T02:19:57;-6.30;99.90
60293;DHT22;52402;52.670;6.750;2024-01-11T02:22:28;-6.30;99.90
60293;DHT22;52402;52.670;6.750;2024-01-11T02:24:55;-6.40;99.90
60293;DHT22;52402;52.670;6.750;2024-01-11T02:27:23;-6.40;99.90
60293;DHT22;52402;52.670;6.750;2024-01-11T02:29:49;-6.40;99.90
60293;DHT22;52402;52.670;6.750;2024-01-11T02:32:14;-6.40;99.90
60293;DHT22;52402;52.670;6.750;2024-01-11T02:34:40;-6.40;99.90
60293;DHT22;52402;52.670;6.750;2024-01-11T02:37:06;-6.40;99.90
60293;DHT22;52402;52.670;6.750;2024-01-11T02:39:33;-6.40;99.90
60293;DHT22;52402;52.670;6.750;2024-01-11T02:42:00;-6.40;99.90
60293;DHT22;52402;52.670;6.750;2024-01-11T02:44:26;-6.50;99.90
60293;DHT22;52402;52.670;6.750;2024-01-11T02:46:51;-6.50;99.90
60293;DHT22;52402;52.670;6.750;2024-01-11T02:49:17;-6.60;99.90
60293;DHT22;52402;52.670;6.750;2024-01-11T02:51:43;-6.50;99.90
60293;DHT22;52402;52.670;6.750;2024-01-11T02:54:09;-6.50;99.90
60293;DHT22;52402;52.670;6.750;2024-01-11T02:56:34;-6.50;99.90
60293;DHT22;52402;52.670;6.750;2024-01-11T02:59:00;-6.60;99.90
60293;DHT22;52402;52.670;6.750;2024-01-11T03:01:26;-6.50;99.90
60293;DHT22;52402;52.670;6.750;2024-01-11T03:03:51;-6.60;99.90
60293;DHT22;52402;52.670;6.750;2024-01-11T03:06:18;-6.60;99.90
60293;DHT22;52402;52.670;6.750;2024-01-11T03:08:50;-6.50;99.90
60293;DHT22;52402;52.670;6.750;2024-01-11T03:11:16;-6.50;99.90
60293;DHT22;52402;52.670;6.750;2024-01-11T03:13:42;-6.60;99.90
60293;DHT22;52402;52.670;6.750;2024-01-11T03:16:07;-6.60;99.90
60293;DHT22;52402;52.670;6.750;2024-01-11T03:18:33;-6.60;99.90
60293;DHT22;52402;52.670;6.750;2024-01-11T03:20:59;-6.70;99.90
60293;DHT22;52402;52.670;6.750;2024-01-11T03:23:24;-6.70;99.90
60293;DHT22;52402;52.670;6.750;2024-01-11T03:25:50;-6.70;99.90
60293;DHT22;52402;52.670;6.750;2024-01-11T03:28:16;-6.60;99.90
60293;DHT22;52402;52.670;6.750;2024-01-11T03:30:41;-6.60;99.90
60293;DHT22;52402;52.670;6.750;2024-01-11T03:33:07;-6.60;99.90
60293;DHT22;52402;52.670;6.750;2024-01-11T03:35:32;-6.50;99.90
60293;DHT22;52402;52.670;6.750;2024-01-11T03:37:58;-6.50;99.90
60293;DHT22;52402;52.670;6.750;2024-01-11T03:40:24;-6.50;99.90
60293;DHT22;52402;52.670;6.750;2024-01-11T03:42:49;-6.50;99.90
60293;DHT22;52402;52.670;6.750;2024-01-11T03:45:18;-6.50;99.90
60293;DHT22;52402;52.670;6.750;2024-01-11T03:47:44;-6.50;99.90
60293;DHT22;52402;52.670;6.750;2024-01-11T03:50:10;-6.50;99.90
60293;DHT22;52402;52.670;6.750;2024-01-11T03:52:36;-6.50;99.90
60293;DHT22;52402;52.670;6.750;2024-01-11T03:55:02;-6.50;99.90
60293;DHT22;52402;52.670;6.750;2024-01-11T03:57:28;-6.50;99.90
60293;DHT22;52402;52.670;6.750;2024-01-11T04:00:00;-6.50;99.90
60293;DHT22;52402;52.670;6.750;2024-01-11T04:02:25;-6.50;99.90
60293;DHT22;52402;52.670;6.750;2024-01-11T04:04:51;-6.50;99.90
60293;DHT22;52402;52.670;6.750;2024-01-11T04:07:16;-6.60;99.90
60293;DHT22;52402;52.670;6.750;2024-01-11T04:09:42;-6.50;99.90
60293;DHT22;52402;52.670;6.750;2024-01-11T04:12:08;-6.50;99.90
60293;DHT22;52402;52.670;6.750;2024-01-11T04:14:38;-6.60;99.90
60293;DHT22;52402;52.670;6.750;2024-01-11T04:17:18;-6.60;99.90
60293;DHT22;52402;52.670;6.750;2024-01-11T04:19:44;-6.60;99.90
60293;DHT22;52402;52.670;6.750;2024-01-11T04:22:09;-6.70;99.90
60293;DHT22;52402;52.670;6.750;2024-01-11T04:24:46;-6.70;99.90
60293;DHT22;52402;52.670;6.750;2024-01-11T04:27:12;-6.60;99.90
60293;DHT22;52402;52.670;6.750;2024-01-11T04:29:38;-6.70;99.90
60293;DHT22;52402;52.670;6.750;2024-01-11T04:32:03;-6.70;99.90
60293;DHT22;52402;52.670;6.750;2024-01-11T04:34:29;-6.70;99.90
60293;DHT22;52402;52.670;6.750;2024-01-11T04:36:55;-6.70;99.90
60293;DHT22;52402;52.670;6.750;2024-01-11T04:39:21;-6.70;99.90
60293;DHT22;52402;52.670;6.750;2024-01-11T04:41:46;-6.70;99.90
60293;DHT22;52402;52.670;6.750;2024-01-11T04:44:13;-6.70;99.90
60293;DHT22;52402;52.670;6.750;2024-01-11T04:46:39;-6.70;99.90
60293;DHT22;52402;52.670;6.750;2024-01-11T04:49:04;-6.70;99.90
60293;DHT22;52402;52.670;6.750;2024-01-11T04:51:34;-6.80;99.90
60293;DHT22;52402;52.670;6.750;2024-01-11T04:53:59;-6.70;99.90
60293;DHT22;52402;52.670;6.750;2024-01-11T04:56:26;-6.80;99.90
60293;DHT22;52402;52.670;6.750;2024-01-11T04:58:51;-6.80;99.90
60293;DHT22;52402;52.670;6.750;2024-01-11T05:01:18;-6.80;99.90
60293;DHT22;52402;52.670;6.750;2024-01-11T05:03:46;-6.80;99.90
60293;DHT22;52402;52.670;6.750;2024-01-11T05:06:16;-6.80;99.90
60293;DHT22;52402;52.670;6.750;2024-01-11T05:08:42;-6.70;99.90
60293;DHT22;52402;52.670;6.750;2024-01-11T05:11:08;-6.70;99.90
60293;DHT22;52402;52.670;6.750;2024-01-11T05:13:40;-6.80;99.90
60293;DHT22;52402;52.670;6.750;2024-01-11T05:16:05;-6.70;99.90
60293;DHT22;52402;52.670;6.750;2024-01-11T05:18:35;-6.70;99.90
60293;DHT22;52402;52.670;6.750;2024-01-11T05:21:00;-6.70;99.90
60293;DHT22;52402;52.670;6.750;2024-01-11T05:23:26;-6.70;99.90
60293;DHT22;52402;52.670;6.750;2024-01-11T05:25:54;-6.70;99.90
60293;DHT22;52402;52.670;6.750;2024-01-11T05:28:19;-6.70;99.90
60293;DHT22;52402;52.670;6.750;2024-01-11T05:30:45;-6.70;99.90
60293;DHT22;52402;52.670;6.750;2024-01-11T05:33:15;-6.70;99.90
60293;DHT22;52402;52.670;6.750;2024-01-11T05:35:40;-6.60;99.90
60293;DHT22;52402;52.670;6.750;2024-01-11T05:38:06;-6.60;99.90
60293;DHT22;52402;52.670;6.750;2024-01-11T05:40:32;-6.60;99.90
60293;DHT22;52402;52.670;6.750;2024-01-11T05:42:57;-6.50;99.90
60293;DHT22;52402;52.670;6.750;2024-01-11T05:45:23;-6.50;99.90
60293;DHT22;52402;52.670;6.750;2024-01-11T05:47:48;-6.50;99.90
60293;DHT22;52402;52.670;6.750;2024-01-11T05:50:14;-6.50;99.90
60293;DHT22;52402;52.670;6.750;2024-01-11T05:52:40;-6.50;99.90
60293;DHT22;52402;52.670;6.750;2024-01-11T05:55:11;-6.50;99.90
60293;DHT22;52402;52.670;6.750;2024-01-11T05:57:36;-6.50;99.90
60293;DHT22;52402;52.670;6.750;2024-01-11T06:00:04;-6.50;99.90
60293;DHT22;52402;52.670;6.750;2024-01-11T06:02:30;-6.50;99.90
60293;DHT22;52402;52.670;6.750;2024-01-11T06:04:57;-6.50;99.90
60293;DHT22;52402;52.670;6.750;2024-01-11T06:07:22;-6.50;99.90
60293;DHT22;52402;52.670;6.750;2024-01-11T06:09:48;-6.60;99.90
60293;DHT22;52402;52.670;6.750;2024-01-11T06:12:14;-6.60;99.90
60293;DHT22;52402;52.670;6.750;2024-01-11T06:14:40;-6.60;99.90
60293;DHT22;52402;52.670;6.750;2024-01-11T06:17:05;-6.50;99.90
60293;DHT22;52402;52.670;6.750;2024-01-11T06:19:31;-6.50;99.90
60293;DHT22;52402;52.670;6.750;2024-01-11T06:21:56;-6.50;99.90
60293;DHT22;52402;52.670;6.750;2024-01-11T06:24:22;-6.40;99.90
60293;DHT22;52402;52.670;6.750;2024-01-11T06:26:48;-6.20;99.90
60293;DHT22;52402;52.670;6.750;2024-01-11T06:29:14;-6.10;99.90
60293;DHT22;52402;52.670;6.750;2024-01-11T06:31:40;-6.00;99.90
60293;DHT22;52402;52.670;6.750;2024-01-11T06:34:06;-5.90;99.90
60293;DHT22;52402;52.670;6.750;2024-01-11T06:36:32;-5.80;99.90
60293;DHT22;52402;52.670;6.750;2024-01-11T06:38:57;-5.80;99.90
60293;DHT22;52402;52.670;6.750;2024-01-11T06:41:23;-5.70;99.90
60293;DHT22;52402;52.670;6.750;2024-01-11T06:43:49;-5.60;99.90
60293;DHT22;52402;52.670;6.750;2024-01-11T06:46:20;-5.50;99.90
60293;DHT22;52402;52.670;6.750;2024-01-11T06:48:46;-5.40;99.90
60293;DHT22;52402;52.670;6.750;2024-01-11T06:51:23;-5.40;99.90
60293;DHT22;52402;52.670;6.750;2024-01-11T06:53:49;-5.30;99.90
60293;DHT22;52402;52.670;6.750;2024-01-11T06:56:21;-5.20;99.90
60293;DHT22;52402;52.670;6.750;2024-01-11T06:58:47;-5.10;99.90
60293;DHT22;52402;52.670;6.750;2024-01-11T07:01:13;-5.10;99.90
60293;DHT22;52402;52.670;6.750;2024-01-11T07:03:39;-5.00;99.90
60293;DHT22;52402;52.670;6.750;2024-01-11T07:06:05;-4.90;99.90
60293;DHT22;52402;52.670;6.750;2024-01-11T07:08:31;-4.90;99.90
60293;DHT22;52402;52.670;6.750;2024-01-11T07:11:01;-4.80;99.90
60293;DHT22;52402;52.670;6.750;2024-01-11T07:13:30;-4.80;99.90
60293;DHT22;52402;52.670;6.750;2024-01-11T07:15:57;-4.70;99.90
60293;DHT22;52402;52.670;6.750;2024-01-11T07:18:24;-4.70;99.90
60293;DHT22;52402;52.670;6.750;2024-01-11T07:20:51;-4.60;99.90
60293;DHT22;52402;52.670;6.750;2024-01-11T07:23:17;-4.60;99.90
60293;DHT22;52402;52.670;6.750;2024-01-11T07:36:36;-4.30;99.90
60293;DHT22;52402;52.670;6.750;2024-01-11T07:39:02;-4.30;99.90
60293;DHT22;52402;52.670;6.750;2024-01-11T07:41:28;-4.20;99.90
60293;DHT22;52402;52.670;6.750;2024-01-11T07:43:53;-4.20;99.90
60293;DHT22;52402;52.670;6.750;2024-01-11T07:46:25;-4.10;99.90
60293;DHT22;52402;52.670;6.750;2024-01-11T07:48:50;-4.10;99.90
60293;DHT22;52402;52.670;6.750;2024-01-11T07:51:16;-4.10;99.90
60293;DHT22;52402;52.670;6.750;2024-01-11T07:53:43;-4.10;99.90
60293;DHT22;52402;52.670;6.750;2024-01-11T07:56:08;-4.00;99.90
60293;DHT22;52402;52.670;6.750;2024-01-11T07:58:40;-3.90;99.90
60293;DHT22;52402;52.670;6.750;2024-01-11T08:01:07;-3.90;99.90
60293;DHT22;52402;52.670;6.750;2024-01-11T08:03:33;-3.90;99.90
60293;DHT22;52402;52.670;6.750;2024-01-11T08:06:01;-3.80;99.90
60293;DHT22;52402;52.670;6.750;2024-01-11T08:08:26;-3.80;99.90
60293;DHT22;52402;52.670;6.750;2024-01-11T08:10:52;-3.80;99.90
60293;DHT22;52402;52.670;6.750;2024-01-11T08:13:18;-3.70;99.90
60293;DHT22;52402;52.670;6.750;2024-01-11T08:15:45;-3.70;99.90
60293;DHT22;52402;52.670;6.750;2024-01-11T08:18:12;-3.60;99.90
60293;DHT22;52402;52.670;6.750;2024-01-11T08:20:39;-3.60;99.90
60293;DHT22;52402;52.670;6.750;2024-01-11T08:23:05;-3.60;99.90
60293;DHT22;52402;52.670;6.750;2024-01-11T08:25:30;-3.50;99.90
60293;DHT22;52402;52.670;6.750;2024-01-11T08:27:56;-3.50;99.90
60293;DHT22;52402;52.670;6.750;2024-01-11T08:30:22;-3.40;99.90
60293;DHT22;52402;52.670;6.750;2024-01-11T08:32:48;-3.40;99.90
60293;DHT22;52402;52.670;6.750;2024-01-11T08:35:14;-3.40;99.90
60293;DHT22;52402;52.670;6.750;2024-01-11T08:37:41;-3.30;99.90
60293;DHT22;52402;52.670;6.750;2024-01-11T08:40:07;-3.30;99.90
60293;DHT22;52402;52.670;6.750;2024-01-11T08:42:34;-3.20;99.90
60293;DHT22;52402;52.670;6.750;2024-01-11T08:45:01;-3.20;99.90
60293;DHT22;52402;52.670;6.750;2024-01-11T08:47:33;-3.10;99.90
60293;DHT22;52402;52.670;6.750;2024-01-11T08:49:59;-3.00;99.90
60293;DHT22;52402;52.670;6.750;2024-01-11T08:52:26;-3.00;99.90
60293;DHT22;52402;52.670;6.750;2024-01-11T08:54:51;-3.00;99.90
60293;DHT22;52402;52.670;6.750;2024-01-11T08:57:17;-2.90;99.90
60293;DHT22;52402;52.670;6.750;2024-01-11T08:59:43;-2.90;99.90
60293;DHT22;52402;52.670;6.750;2024-01-11T09:02:09;-2.80;99.90
60293;DHT22;52402;52.670;6.750;2024-01-11T09:04:36;-2.80;99.90
60293;DHT22;52402;52.670;6.750;2024-01-11T09:07:02;-2.80;99.90
60293;DHT22;52402;52.670;6.750;2024-01-11T09:09:34;-2.70;99.90
60293;DHT22;52402;52.670;6.750;2024-01-11T09:12:01;-2.70;99.90
60293;DHT22;52402;52.670;6.750;2024-01-11T09:14:28;-2.60;99.90
60293;DHT22;52402;52.670;6.750;2024-01-11T09:16:56;-2.60;99.90
60293;DHT22;52402;52.670;6.750;2024-01-11T09:19:22;-2.50;99.90
60293;DHT22;52402;52.670;6.750;2024-01-11T09:21:50;-2.50;99.90
60293;DHT22;52402;52.670;6.750;2024-01-11T09:24:15;-2.40;99.90
60293;DHT22;52402;52.670;6.750;2024-01-11T09:26:43;-2.40;99.90
60293;DHT22;52402;52.670;6.750;2024-01-11T09:29:09;-2.30;99.90
60293;DHT22;52402;52.670;6.750;2024-01-11T09:31:35;-2.30;99.90
60293;DHT22;52402;52.670;6.750;2024-01-11T09:34:03;-2.20;99.90
60293;DHT22;52402;52.670;6.750;2024-01-11T09:36:36;-2.20;99.90
60293;DHT22;52402;52.670;6.750;2024-01-11T09:39:04;-2.10;99.90
60293;DHT22;52402;52.670;6.750;2024-01-11T09:41:31;-2.10;99.90
60293;DHT22;52402;52.670;6.750;2024-01-11T09:44:00;-2.00;99.90
60293;DHT22;52402;52.670;6.750;2024-01-11T09:46:27;-2.00;99.90
60293;DHT22;52402;52.670;6.750;2024-01-11T09:48:55;-1.90;99.90
60293;DHT22;52402;52.670;6.750;2024-01-11T09:51:21;-1.90;99.90
60293;DHT22;52402;52.670;6.750;2024-01-11T09:53:47;-1.80;99.90
60293;DHT22;52402;52.670;6.750;2024-01-11T09:56:16;-1.80;99.90
60293;DHT22;52402;52.670;6.750;2024-01-11T09:58:46;-1.80;99.90
60293;DHT22;52402;52.670;6.750;2024-01-11T10:01:15;-1.70;99.90
60293;DHT22;52402;52.670;6.750;2024-01-11T10:03:42;-1.70;99.90
60293;DHT22;52402;52.670;6.750;2024-01-11T10:06:08;-1.60;99.90
60293;DHT22;52402;52.670;6.750;2024-01-11T10:08:35;-1.60;99.90
60293;DHT22;52402;52.670;6.750;2024-01-11T10:11:02;-1.50;99.90
60293;DHT22;52402;52.670;6.750;2024-01-11T10:13:29;-1.40;99.90
60293;DHT22;52402;52.670;6.750;2024-01-11T10:16:08;-1.40;99.90
60293;DHT22;52402;52.670;6.750;2024-01-11T10:18:35;-1.30;99.90
60293;DHT22;52402;52.670;6.750;2024-01-11T10:21:01;-1.30;99.90
60293;DHT22;52402;52.670;6.750;2024-01-11T10:23:27;-1.20;99.90
60293;DHT22;52402;52.670;6.750;2024-01-11T10:25:56;-1.20;99.90
60293;DHT22;52402;52.670;6.750;2024-01-11T10:28:27;-1.10;99.90
60293;DHT22;52402;52.670;6.750;2024-01-11T10:30:52;-1.00;99.90
60293;DHT22;52402;52.670;6.750;2024-01-11T10:33:22;-1.00;99.90
60293;DHT22;52402;52.670;6.750;2024-01-11T10:35:49;-0.90;99.90
60293;DHT22;52402;52.670;6.750;2024-01-11T10:38:15;-0.80;99.90
60293;DHT22;52402;52.670;6.750;2024-01-11T10:40:42;-0.80;99.90
60293;DHT22;52402;52.670;6.750;2024-01-11T10:43:11;-0.70;99.90
60293;DHT22;52402;52.670;6.750;2024-01-11T10:45:37;-0.60;99.90
60293;DHT22;52402;52.670;6.750;2024-01-11T10:48:16;-0.60;99.90
60293;DHT22;52402;52.670;6.750;2024-01-11T10:50:45;-0.50;99.90
60293;DHT22;52402;52.670;6.750;2024-01-11T10:55:50;-0.40;99.90
60293;DHT22;52402;52.670;6.750;2024-01-11T10:58:16;-0.40;99.90
60293;DHT22;52402;52.670;6.750;2024-01-11T11:00:43;-0.30;99.90
60293;DHT22;52402;52.670;6.750;2024-01-11T11:03:11;-0.30;99.90
60293;DHT22;52402;52.670;6.750;2024-01-11T11:05:45;-0.20;99.90
60293;DHT22;52402;52.670;6.750;2024-01-11T11:08:14;-0.20;99.90
60293;DHT22;52402;52.670;6.750;2024-01-11T11:10:40;-0.10;99.90
60293;DHT22;52402;52.670;6.750;2024-01-11T11:13:08;-0.10;99.90
60293;DHT22;52402;52.670;6.750;2024-01-11T11:15:35;-0.10;99.90
60293;DHT22;52402;52.670;6.750;2024-01-11T11:18:03;-0.10;99.90
60293;DHT22;52402;52.670;6.750;2024-01-11T11:20:31;0.00;99.90
60293;DHT22;52402;52.670;6.750;2024-01-11T11:23:07;0.00;99.90
60293;DHT22;52402;52.670;6.750;2024-01-11T11:25:35;0.00;99.90
60293;DHT22;52402;52.670;6.750;2024-01-11T11:28:01;0.00;99.90
60293;DHT22;52402;52.670;6.750;2024-01-11T11:30:30;0.00;99.90
60293;DHT22;52402;52.670;6.750;2024-01-11T11:32:56;0.10;99.90
60293;DHT22;52402;52.670;6.750;2024-01-11T11:35:25;0.10;99.90
60293;DHT22;52402;52.670;6.750;2024-01-11T11:37:55;0.10;99.90
60293;DHT22;52402;52.670;6.750;2024-01-11T11:40:23;0.10;99.90
60293;DHT22;52402;52.670;6.750;2024-01-11T11:42:57;0.20;99.90
60293;DHT22;52402;52.670;6.750;2024-01-11T11:45:26;0.20;99.90
60293;DHT22;52402;52.670;6.750;2024-01-11T11:47:53;0.20;99.90
60293;DHT22;52402;52.670;6.750;2024-01-11T11:50:22;0.30;99.90
60293;DHT22;52402;52.670;6.750;2024-01-11T11:52:56;0.30;99.90
60293;DHT22;52402;52.670;6.750;2024-01-11T11:55:25;0.30;99.90
60293;DHT22;52402;52.670;6.750;2024-01-11T11:57:52;0.40;99.90
60293;DHT22;52402;52.670;6.750;2024-01-11T12:00:20;0.40;99.90
60293;DHT22;52402;52.670;6.750;2024-01-11T12:02:47;0.40;99.90
60293;DHT22;52402;52.670;6.750;2024-01-11T12:05:13;0.50;99.90
60293;DHT22;52402;52.670;6.750;2024-01-11T12:07:39;0.50;99.90
60293;DHT22;52402;52.670;6.750;2024-01-11T12:10:05;0.50;99.90
60293;DHT22;52402;52.670;6.750;2024-01-11T12:12:33;0.50;99.90
60293;DHT22;52402;52.670;6.750;2024-01-11T12:14:59;0.60;99.90
60293;DHT22;52402;52.670;6.750;2024-01-11T12:17:25;0.60;99.90
60293;DHT22;52402;52.670;6.750;2024-01-11T12:19:53;0.60;99.90
60293;DHT22;52402;52.670;6.750;2024-01-11T12:22:19;0.70;99.90
60293;DHT22;52402;52.670;6.750;2024-01-11T12:24:46;0.70;99.90
60293;DHT22;52402;52.670;6.750;2024-01-11T12:27:11;0.70;99.90
60293;DHT22;52402;52.670;6.750;2024-01-11T12:29:39;0.70;99.90
60293;DHT22;52402;52.670;6.750;2024-01-11T12:32:05;0.80;99.90
60293;DHT22;52402;52.670;6.750;2024-01-11T12:34:31;0.70;99.90
60293;DHT22;52402;52.670;6.750;2024-01-11T12:36:58;0.80;99.90
60293;DHT22;52402;52.670;6.750;2024-01-11T12:39:26;0.70;99.90
60293;DHT22;52402;52.670;6.750;2024-01-11T12:41:54;0.70;99.90
60293;DHT22;52402;52.670;6.750;2024-01-11T12:44:21;0.70;99.90
60293;DHT22;52402;52.670;6.750;2024-01-11T12:46:49;0.70;99.90
60293;DHT22;52402;52.670;6.750;2024-01-11T12:49:15;0.70;99.90
60293;DHT22;52402;52.670;6.750;2024-01-11T12:51:41;0.70;99.90
60293;DHT22;52402;52.670;6.750;2024-01-11T12:54:16;0.70;99.90
60293;DHT22;52402;52.670;6.750;2024-01-11T12:56:45;0.70;99.90
60293;DHT22;52402;52.670;6.750;2024-01-11T12:59:11;0.70;99.90
60293;DHT22;52402;52.670;6.750;2024-01-11T13:01:38;0.70;99.90
60293;DHT22;52402;52.670;6.750;2024-01-11T13:04:04;0.70;99.90
60293;DHT22;52402;52.670;6.750;2024-01-11T13:06:30;0.70;99.90
60293;DHT22;52402;52.670;6.750;2024-01-11T13:08:56;0.70;99.90
60293;DHT22;52402;52.670;6.750;2024-01-11T13:11:22;0.80;99.90
60293;DHT22;52402;52.670;6.750;2024-01-11T13:13:50;0.80;99.90
60293;DHT22;52402;52.670;6.750;2024-01-11T13:16:19;0.80;99.90
60293;DHT22;52402;52.670;6.750;2024-01-11T13:18:46;0.70;99.90
60293;DHT22;52402;52.670;6.750;2024-01-11T13:21:13;0.80;99.90
60293;DHT22;52402;52.670;6.750;2024-01-11T13:23:39;0.80;99.90
60293;DHT22;52402;52.670;6.750;2024-01-11T13:26:05;0.80;99.90
60293;DHT22;52402;52.670;6.750;2024-01-11T13:28:32;0.80;99.90
60293;DHT22;52402;52.670;6.750;2024-01-11T13:30:59;0.80;99.90
60293;DHT22;52402;52.670;6.750;2024-01-11T13:33:25;0.70;99.90
60293;DHT22;52402;52.670;6.750;2024-01-11T13:35:50;0.80;99.90
60293;DHT22;52402;52.670;6.750;2024-01-11T13:38:16;0.80;99.90
60293;DHT22;52402;52.670;6.750;2024-01-11T13:40:42;0.70;99.90
60293;DHT22;52402;52.670;6.750;2024-01-11T13:43:09;0.80;99.90
60293;DHT22;52402;52.670;6.750;2024-01-11T13:45:35;0.80;99.90
60293;DHT22;52402;52.670;6.750;2024-01-11T13:48:05;0.80;99.90
60293;DHT22;52402;52.670;6.750;2024-01-11T13:50:31;0.80;99.90
60293;DHT22;52402;52.670;6.750;2024-01-11T13:52:58;0.70;99.90
60293;DHT22;52402;52.670;6.750;2024-01-11T13:55:24;0.70;99.90
60293;DHT22;52402;52.670;6.750;2024-01-11T13:57:50;0.80;99.90
60293;DHT22;52402;52.670;6.750;2024-01-11T14:00:16;0.70;99.90
60293;DHT22;52402;52.670;6.750;2024-01-11T14:02:45;0.70;99.90
60293;DHT22;52402;52.670;6.750;2024-01-11T14:05:12;0.70;99.90
60293;DHT22;52402;52.670;6.750;2024-01-11T14:07:43;0.70;99.90
60293;DHT22;52402;52.670;6.750;2024-01-11T14:10:09;0.70;99.90
60293;DHT22;52402;52.670;6.750;2024-01-11T14:12:36;0.70;99.90
60293;DHT22;52402;52.670;6.750;2024-01-11T14:15:03;0.60;99.90
60293;DHT22;52402;52.670;6.750;2024-01-11T14:17:29;0.60;99.90
60293;DHT22;52402;52.670;6.750;2024-01-11T14:19:55;0.60;99.90
60293;DHT22;52402;52.670;6.750;2024-01-11T14:22:20;0.60;99.90
60293;DHT22;52402;52.670;6.750;2024-01-11T14:24:46;0.60;99.90
60293;DHT22;52402;52.670;6.750;2024-01-11T14:27:12;0.60;99.90
60293;DHT22;52402;52.670;6.750;2024-01-11T14:29:40;0.60;99.90
60293;DHT22;52402;52.670;6.750;2024-01-11T14:32:06;0.60;99.90
60293;DHT22;52402;52.670;6.750;2024-01-11T14:34:31;0.60;99.90
60293;DHT22;52402;52.670;6.750;2024-01-11T14:36:58;0.50;99.90
60293;DHT22;52402;52.670;6.750;2024-01-11T14:39:24;0.60;99.90
60293;DHT22;52402;52.670;6.750;2024-01-11T14:41:49;0.60;99.90
60293;DHT22;52402;52.670;6.750;2024-01-11T14:44:15;0.60;99.90
60293;DHT22;52402;52.670;6.750;2024-01-11T14:46:40;0.60;99.90
60293;DHT22;52402;52.670;6.750;2024-01-11T14:49:09;0.50;99.90
60293;DHT22;52402;52.670;6.750;2024-01-11T14:51:35;0.50;99.90
60293;DHT22;52402;52.670;6.750;2024-01-11T14:54:03;0.60;99.90
60293;DHT22;52402;52.670;6.750;2024-01-11T14:56:30;0.60;99.90
60293;DHT22;52402;52.670;6.750;2024-01-11T14:58:55;0.60;99.90
60293;DHT22;52402;52.670;6.750;2024-01-11T15:01:21;0.50;99.90
60293;DHT22;52402;52.670;6.750;2024-01-11T15:03:47;0.60;99.90
60293;DHT22;52402;52.670;6.750;2024-01-11T15:06:13;0.50;99.90
60293;DHT22;52402;52.670;6.750;2024-01-11T15:08:39;0.60;99.90
60293;DHT22;52402;52.670;6.750;2024-01-11T15:11:05;0.50;99.90
60293;DHT22;52402;52.670;6.750;2024-01-11T15:13:31;0.50;99.90
60293;DHT22;52402;52.670;6.750;2024-01-11T15:15:57;0.50;99.90
60293;DHT22;52402;52.670;6.750;2024-01-11T15:18:22;0.50;99.90
60293;DHT22;52402;52.670;6.750;2024-01-11T15:20:48;0.50;99.90
60293;DHT22;52402;52.670;6.750;2024-01-11T15:23:14;0.50;99.90
60293;DHT22;52402;52.670;6.750;2024-01-11T15:25:39;0.50;99.90
60293;DHT22;52402;52.670;6.750;2024-01-11T15:28:05;0.50;99.90
60293;DHT22;52402;52.670;6.750;2024-01-11T15:30:30;0.50;99.90
60293;DHT22;52402;52.670;6.750;2024-01-11T15:32:56;0.50;99.90
60293;DHT22;52402;52.670;6.750;2024-01-11T15:35:21;0.50;99.90
60293;DHT22;52402;52.670;6.750;2024-01-11T15:37:47;0.50;99.90
60293;DHT22;52402;52.670;6.750;2024-01-11T15:40:14;0.50;99.90
60293;DHT22;52402;52.670;6.750;2024-01-11T15:42:39;0.50;99.90
60293;DHT22;52402;52.670;6.750;2024-01-11T15:45:06;0.50;99.90